Pagina principale
METAR-TAF:

METAR-TAF

Aeroporti :

Aerodromo Hinterstoisser-Zeltweg

Zeltweg, Austria

latitudine: 47-12N, longitudine: 014-45E, altezza: 677 m

Osservazione

Il bollettino è stato emesso 49 minuti fa, alle 18:50 UTC
Vento 4 kt da nord-ovest
Temperature 12°C
Umidità 88%
Pressione 1004 hPa

METAR: LOXZ 191850Z 32004KT 20KM SCT045CU OVC090SC 12/10 Q1004 NOSIG

Ora: 21:39 (19:39 UTC)

Previsione

Il bollettino è stato emesso 5 ore e 24 minuti fa, alle 14:15 UTC
Previsione valida dal 19 alle 15 UTC al 19 alle 24 UTC
Vento 3 kt da direzioni variabili
Visibilità 10 km o più
Poco nuvoloso ad un'altezza di 5000 ft
Nuvoloso ad un'altezza di 6000 ft
Temporaneamente
dal 19 alle 15 UTC al 19 alle 21 UTC
Poco nuvoloso ad un'altezza di 4000 ft, Cumulo congesto.
Nuvoloso ad un'altezza di 6000 ft
rovesci di pioggia

TAF: LOXZ 191415Z 1915/1924 VRB03KT 9999 FEW050 BKN060 TEMPO 1915/1921 SHRA FEW040TCU BKN060

Osservazioni e previsioni meteorologiche di più di 4000 aeroporti (messaggi METAR e TAF).

Le stazioni disponibili sono rappresentate dai dischi gialli e rossi sulla carta.

Puntare il mouse per vedere il nome della stazione.

Clicca sopra per visualizzare le osservazioni e previsioni meteorologiche.

Per cambiare la mappa : fare clic sui pulsanti verdi con una croce nera per ingrandire, il pulsante verde con un trattino per diminuire, o sulla freccia verde per le mappe adiacenti.


METAR-TAF: